createdAt,value
2022-09-07T00:00:46.152Z,97.20
2022-09-07T00:03:15.591Z,97.10
2022-09-07T00:05:46.618Z,97.20
2022-09-07T00:08:17.370Z,96.90
2022-09-07T00:10:58.543Z,97.10
2022-09-07T00:13:31.225Z,97.20
2022-09-07T00:16:00.672Z,97.10
2022-09-07T00:18:29.804Z,97.10
2022-09-07T00:21:05.145Z,97.10
2022-09-07T00:23:36.502Z,96.90
2022-09-07T00:26:08.669Z,96.60
2022-09-07T00:28:38.591Z,96.50
2022-09-07T00:31:13.790Z,96.40
2022-09-07T00:33:43.478Z,96.30
2022-09-07T00:36:12.970Z,96.20
2022-09-07T00:38:42.129Z,96.10
2022-09-07T00:41:12.420Z,96.00
2022-09-07T00:43:47.543Z,95.90
2022-09-07T00:46:25.408Z,95.80
2022-09-07T00:49:22.673Z,95.60
2022-09-07T00:51:59.986Z,95.80
2022-09-07T00:54:35.856Z,95.70
2022-09-07T00:57:05.625Z,95.70
2022-09-07T00:59:51.449Z,95.50
2022-09-07T01:02:21.718Z,95.60
2022-09-07T01:04:54.243Z,95.30
2022-09-07T01:07:23.336Z,95.10
2022-09-07T01:09:53.664Z,95.10
2022-09-07T01:12:23.163Z,95.00
2022-09-07T01:14:54.814Z,94.90
2022-09-07T01:17:23.804Z,94.80
2022-09-07T01:20:11.582Z,94.90
2022-09-07T01:22:57.299Z,94.30
2022-09-07T01:25:52.021Z,94.70
2022-09-07T01:28:23.929Z,94.00
2022-09-07T01:31:13.183Z,93.70
2022-09-07T01:34:11.821Z,93.60
2022-09-07T01:36:52.910Z,93.30
2022-09-07T01:39:26.359Z,93.20
2022-09-07T01:42:14.774Z,93.20
2022-09-07T01:44:59.949Z,93.00
2022-09-07T01:47:41.520Z,92.00
2022-09-07T01:50:22.689Z,92.30
2022-09-07T01:53:04.331Z,92.10
2022-09-07T01:55:43.094Z,92.10
2022-09-07T01:58:40.007Z,91.80
2022-09-07T02:01:34.988Z,91.60
2022-09-07T02:04:21.682Z,91.00
2022-09-07T02:06:50.998Z,90.80
2022-09-07T02:09:36.559Z,89.70
2022-09-07T02:12:16.530Z,89.40
2022-09-07T02:14:52.813Z,89.60
2022-09-07T02:17:35.364Z,90.10
2022-09-07T02:20:27.950Z,89.90
2022-09-07T02:23:00.970Z,87.60
2022-09-07T02:25:42.121Z,88.90
2022-09-07T02:28:15.617Z,88.30
2022-09-07T02:30:45.310Z,88.20
2022-09-07T02:33:14.847Z,87.60
2022-09-07T02:35:44.057Z,87.80
2022-09-07T02:38:13.245Z,87.00
2022-09-07T02:40:42.376Z,86.80
2022-09-07T02:43:13.153Z,86.80
2022-09-07T02:45:59.264Z,86.40
2022-09-07T02:49:12.839Z,84.60
2022-09-07T02:51:53.565Z,83.20
2022-09-07T02:54:50.934Z,80.60
2022-09-07T02:57:41.509Z,81.60
2022-09-07T03:00:19.069Z,80.20
2022-09-07T03:02:48.201Z,81.80
2022-09-07T03:05:30.306Z,81.50
2022-09-07T03:08:07.339Z,82.10
2022-09-07T04:03:31.315Z,75.30
2022-09-07T04:06:01.759Z,74.70
2022-09-07T04:08:33.367Z,74.20
2022-09-07T04:11:06.636Z,74.30
2022-09-07T04:13:37.608Z,75.60
2022-09-07T04:16:23.767Z,75.60
2022-09-07T04:18:55.877Z,76.20
2022-09-07T04:21:27.171Z,77.00
2022-09-07T04:23:59.818Z,76.00
2022-09-07T04:26:31.584Z,75.30
2022-09-07T04:29:05.249Z,73.60
2022-09-07T04:31:36.607Z,74.90
2022-09-07T04:34:07.204Z,73.10
2022-09-07T04:36:37.001Z,74.30
2022-09-07T04:39:07.493Z,75.40
2022-09-07T04:41:36.890Z,76.00
2022-09-07T04:44:06.611Z,75.20
2022-09-07T04:46:37.842Z,76.00
2022-09-07T04:49:13.453Z,75.40
2022-09-07T04:51:45.768Z,73.10
2022-09-07T04:54:15.113Z,73.50
2022-09-07T04:56:44.434Z,71.30
2022-09-07T04:59:13.896Z,70.10
2022-09-07T05:01:43.322Z,72.40
2022-09-07T05:04:12.805Z,72.40
2022-09-07T05:06:42.217Z,71.80
2022-09-07T05:09:12.554Z,72.30
2022-09-07T05:11:41.982Z,72.80
2022-09-07T05:14:12.569Z,73.50
2022-09-07T05:16:41.919Z,75.20
2022-09-07T05:19:14.413Z,74.50
2022-09-07T05:21:43.790Z,74.60
2022-09-07T05:24:13.117Z,74.60
2022-09-07T05:26:42.428Z,74.70
2022-09-07T05:32:02.695Z,74.10
2022-09-07T05:34:32.522Z,74.10
2022-09-07T05:37:02.490Z,73.50
2022-09-07T05:39:32.180Z,74.80
2022-09-07T05:42:01.599Z,73.00
2022-09-07T05:44:48.107Z,73.30
2022-09-07T05:47:17.562Z,73.10
2022-09-07T05:49:46.906Z,73.40
2022-09-07T05:52:16.363Z,73.10
2022-09-07T05:54:45.434Z,71.60
2022-09-07T05:57:14.781Z,71.60
2022-09-07T05:59:43.947Z,71.50
2022-09-07T06:02:16.907Z,71.70
2022-09-07T06:04:46.020Z,72.10
2022-09-07T06:07:21.720Z,71.40
2022-09-07T06:12:42.525Z,72.30
2022-09-07T06:15:14.063Z,71.00
2022-09-07T06:17:43.129Z,71.10
2022-09-07T06:20:12.625Z,70.20
2022-09-07T06:22:41.761Z,70.90
2022-09-07T06:25:11.059Z,67.80
2022-09-07T06:27:40.126Z,68.50
2022-09-07T06:30:09.658Z,69.50
2022-09-07T06:35:12.468Z,69.20
2022-09-07T06:37:42.062Z,69.20
2022-09-07T06:40:14.344Z,69.70
2022-09-07T06:42:43.382Z,67.00
2022-09-07T06:45:12.749Z,68.20
2022-09-07T06:47:42.064Z,68.90
2022-09-07T06:50:11.875Z,65.50
2022-09-07T06:55:30.849Z,67.30
2022-09-07T06:58:00.167Z,66.50
2022-09-07T07:00:29.560Z,65.10
2022-09-07T07:02:59.001Z,66.70
2022-09-07T07:05:28.412Z,65.90
2022-09-07T07:07:57.785Z,67.50
2022-09-07T07:10:27.250Z,67.40
2022-09-07T07:13:02.093Z,67.60
2022-09-07T07:15:32.396Z,67.30
2022-09-07T07:18:14.815Z,66.60
2022-09-07T07:20:49.516Z,67.90
2022-09-07T07:23:18.904Z,65.60
2022-09-07T07:25:48.225Z,66.90
2022-09-07T07:31:12.946Z,67.00
2022-09-07T07:33:42.823Z,66.70
2022-09-07T07:36:18.293Z,66.00
2022-09-07T07:39:05.090Z,67.60
2022-09-07T07:44:24.141Z,68.60
2022-09-07T07:46:53.610Z,68.00
2022-09-07T07:49:22.994Z,68.40
2022-09-07T07:54:44.917Z,69.20
2022-09-07T07:57:14.606Z,67.50
2022-09-07T07:59:43.847Z,67.90
2022-09-07T08:02:18.009Z,68.30
2022-09-07T08:04:47.365Z,68.60
2022-09-07T08:07:17.313Z,68.30
2022-09-07T08:09:48.686Z,68.40
2022-09-07T08:12:20.721Z,69.00
2022-09-07T08:14:50.583Z,68.90
2022-09-07T08:17:20.199Z,68.60
2022-09-07T08:19:49.587Z,67.40
2022-09-07T08:22:19.053Z,67.10
2022-09-07T08:24:48.365Z,67.30
2022-09-07T08:27:21.867Z,67.20
2022-09-07T08:29:55.007Z,67.10
2022-09-07T08:32:24.348Z,68.00
2022-09-07T08:34:53.752Z,68.60
2022-09-07T08:37:23.284Z,67.40
2022-09-07T08:39:52.657Z,68.20
2022-09-07T08:42:47.552Z,67.10
2022-09-07T08:45:33.082Z,65.60
2022-09-07T08:48:02.944Z,66.60
2022-09-07T08:50:47.506Z,67.50
2022-09-07T08:53:21.611Z,68.90
2022-09-07T08:55:59.779Z,68.50
2022-09-07T08:58:50.704Z,68.90
2022-09-07T09:01:33.994Z,68.60
2022-09-07T09:04:20.218Z,69.50
2022-09-07T09:06:50.496Z,68.50
2022-09-07T09:09:31.789Z,68.80
2022-09-07T09:12:19.525Z,69.40
2022-09-07T09:15:19.440Z,68.80
2022-09-07T09:18:28.241Z,68.90
2022-09-07T09:20:59.280Z,68.40
2022-09-07T09:23:35.959Z,67.90
2022-09-07T09:26:11.669Z,69.80
2022-09-07T09:28:41.309Z,68.10
2022-09-07T09:31:22.368Z,68.70
2022-09-07T09:34:16.282Z,68.60
2022-09-07T09:36:56.982Z,68.30
2022-09-07T09:39:35.408Z,68.80
2022-09-07T09:42:14.029Z,69.30
2022-09-07T09:44:44.300Z,69.40
2022-09-07T09:47:37.181Z,69.60
2022-09-07T09:53:34.723Z,68.70
2022-09-07T09:56:05.968Z,69.60
2022-09-07T10:01:35.513Z,70.00
2022-09-07T10:04:31.429Z,70.20
2022-09-07T10:07:15.705Z,69.80
2022-09-07T10:09:51.484Z,70.20
2022-09-07T10:12:36.328Z,70.30
2022-09-07T10:15:08.336Z,70.20
2022-09-07T10:17:44.234Z,70.60
2022-09-07T10:20:18.608Z,70.20
2022-09-07T10:22:56.358Z,70.50
2022-09-07T10:25:43.013Z,70.40
2022-09-07T10:28:15.165Z,70.40
2022-09-07T10:31:32.823Z,70.90
2022-09-07T10:34:28.950Z,70.40
2022-09-07T10:37:09.966Z,70.90
2022-09-07T10:39:50.200Z,71.30
2022-09-07T10:42:34.805Z,71.60
2022-09-07T10:45:20.782Z,71.60
2022-09-07T10:48:08.166Z,71.70
2022-09-07T10:50:54.533Z,71.90
2022-09-07T10:53:43.135Z,72.20
2022-09-07T10:56:39.143Z,72.40
2022-09-07T10:59:14.356Z,72.20
2022-09-07T11:01:54.532Z,72.50
2022-09-07T11:04:55.886Z,72.60
2022-09-07T11:07:27.937Z,72.60
2022-09-07T11:10:01.506Z,72.80
2022-09-07T11:12:37.528Z,72.90
2022-09-07T11:15:15.718Z,72.90
2022-09-07T11:18:02.723Z,73.00
2022-09-07T11:21:00.084Z,73.20
2022-09-07T11:23:40.388Z,73.00
2022-09-07T11:26:20.722Z,73.30
2022-09-07T11:32:10.844Z,73.40
2022-09-07T11:34:45.148Z,73.60
2022-09-07T11:37:34.112Z,73.50
2022-09-07T11:40:17.806Z,73.40
2022-09-07T11:43:23.097Z,73.60
2022-09-07T11:46:01.384Z,73.40
2022-09-07T11:48:53.800Z,73.80
2022-09-07T11:51:43.463Z,73.80
2022-09-07T11:54:29.824Z,74.00
2022-09-07T11:57:22.078Z,74.10
2022-09-07T12:00:12.222Z,74.30
2022-09-07T12:03:08.785Z,74.40
2022-09-07T12:05:42.687Z,74.40
2022-09-07T12:08:40.983Z,74.60
2022-09-07T12:11:23.480Z,74.60
2022-09-07T12:14:38.627Z,74.90
2022-09-07T12:17:19.890Z,74.90
2022-09-07T12:20:12.746Z,75.00
2022-09-07T12:23:00.940Z,75.70
2022-09-07T12:25:35.549Z,76.00
2022-09-07T12:28:05.146Z,75.40
2022-09-07T12:30:37.638Z,75.50
2022-09-07T12:33:22.670Z,75.60
2022-09-07T12:35:52.141Z,75.60
2022-09-07T12:38:21.411Z,75.70
2022-09-07T12:41:01.188Z,75.80
2022-09-07T12:43:35.494Z,75.90
2022-09-07T12:46:05.150Z,76.00
2022-09-07T12:48:37.220Z,75.90
2022-09-07T12:51:06.307Z,76.00
2022-09-07T12:53:59.738Z,76.10
2022-09-07T13:00:19.402Z,76.20
2022-09-07T13:03:07.007Z,76.40
2022-09-07T13:05:56.438Z,76.60
2022-09-07T13:08:56.129Z,76.40
2022-09-07T13:11:31.715Z,76.60
2022-09-07T13:14:09.411Z,76.70
2022-09-07T13:19:48.534Z,76.70
2022-09-07T13:22:32.728Z,76.90
2022-09-07T13:25:21.868Z,76.80
2022-09-07T13:28:05.962Z,76.80
2022-09-07T13:30:54.690Z,76.90
2022-09-07T13:33:27.258Z,76.90
2022-09-07T13:36:17.410Z,76.90
2022-09-07T13:38:46.748Z,77.10
2022-09-07T13:41:19.988Z,77.20
2022-09-07T13:44:01.010Z,77.30
2022-09-07T13:46:51.356Z,77.40
2022-09-07T13:49:38.367Z,77.70
2022-09-07T13:52:30.698Z,77.60
2022-09-07T13:55:02.747Z,77.70
2022-09-07T13:57:52.023Z,77.90
2022-09-07T14:00:21.408Z,77.90
2022-09-07T14:02:57.031Z,78.00
2022-09-07T14:05:26.589Z,78.10
2022-09-07T14:07:55.649Z,78.10
2022-09-07T14:10:27.360Z,78.10
2022-09-07T14:13:13.374Z,78.30
2022-09-07T14:15:50.669Z,78.30
2022-09-07T14:18:34.059Z,78.40
2022-09-07T14:21:03.105Z,78.70
2022-09-07T14:23:36.803Z,78.70
2022-09-07T14:26:16.978Z,78.70
2022-09-07T14:28:54.816Z,78.90
2022-09-07T14:31:26.551Z,79.00
2022-09-07T14:34:00.741Z,79.00
2022-09-07T14:36:45.686Z,79.10
2022-09-07T14:39:17.684Z,79.20
2022-09-07T14:41:47.423Z,79.50
2022-09-07T14:44:39.019Z,79.50
2022-09-07T14:47:30.247Z,80.20
2022-09-07T14:50:06.861Z,79.80
2022-09-07T14:52:44.135Z,79.80
2022-09-07T14:55:43.540Z,80.00
2022-09-07T14:58:15.965Z,80.20
2022-09-07T15:01:36.718Z,80.40
2022-09-07T15:03:59.024Z,79.70
2022-09-07T15:09:37.780Z,80.70
2022-09-07T15:12:33.071Z,80.80
2022-09-07T15:15:37.683Z,81.00
2022-09-07T15:18:43.606Z,82.50
2022-09-07T15:21:13.030Z,81.50
2022-09-07T15:23:42.299Z,81.30
2022-09-07T15:27:02.016Z,81.30
2022-09-07T15:29:11.039Z,81.10
2022-09-07T15:31:43.357Z,81.20
2022-09-07T15:34:17.279Z,81.40
2022-09-07T15:36:54.079Z,81.10
2022-09-07T15:39:26.743Z,81.20
2022-09-07T15:41:56.733Z,81.10
2022-09-07T15:44:28.030Z,81.10
2022-09-07T15:49:51.366Z,81.00
2022-09-07T15:52:21.066Z,81.10
2022-09-07T15:54:50.371Z,81.90
2022-09-07T16:00:09.550Z,81.10
2022-09-07T16:05:31.328Z,81.00
2022-09-07T16:10:55.694Z,81.00
2022-09-07T16:13:25.410Z,81.00
2022-09-07T16:15:59.533Z,81.00
2022-09-07T16:18:31.256Z,82.00
2022-09-07T16:21:11.497Z,81.10
2022-09-07T16:23:46.465Z,81.40
2022-09-07T16:26:16.490Z,81.50
2022-09-07T16:28:49.927Z,81.70
2022-09-07T16:31:23.025Z,81.80
2022-09-07T16:33:52.810Z,81.90
2022-09-07T16:36:25.757Z,82.20
2022-09-07T16:39:00.609Z,82.30
2022-09-07T16:41:35.786Z,82.60
2022-09-07T16:44:05.230Z,82.70
2022-09-07T16:46:37.564Z,82.90
2022-09-07T16:49:08.350Z,83.20
2022-09-07T16:51:38.422Z,83.40
2022-09-07T16:54:09.360Z,83.50
2022-09-07T16:56:39.305Z,83.60
2022-09-07T16:59:12.677Z,83.70
2022-09-07T17:01:42.103Z,83.90
2022-09-07T17:04:11.836Z,84.10
2022-09-07T17:06:41.936Z,84.20
2022-09-07T17:09:12.217Z,84.20
2022-09-07T17:11:41.993Z,83.90
2022-09-07T17:14:11.502Z,84.70
2022-09-07T17:16:42.473Z,84.60
2022-09-07T17:19:30.053Z,84.70
2022-09-07T17:22:00.885Z,84.70
2022-09-07T17:24:32.338Z,84.90
2022-09-07T17:27:02.618Z,84.90
2022-09-07T17:29:37.606Z,85.10
2022-09-07T17:32:24.637Z,85.10
2022-09-07T17:34:56.439Z,85.20
2022-09-07T17:37:25.997Z,85.20
2022-09-07T17:39:56.676Z,85.20
2022-09-07T17:43:38.864Z,85.20
2022-09-07T17:45:18.482Z,85.30
2022-09-07T17:47:50.583Z,85.30
2022-09-07T17:50:19.644Z,85.30
2022-09-07T17:52:53.016Z,85.30
2022-09-07T17:55:22.245Z,85.40
2022-09-07T17:57:51.322Z,85.60
2022-09-07T18:00:20.381Z,85.60
2022-09-07T18:02:49.465Z,85.80
2022-09-07T18:05:18.636Z,86.10
2022-09-07T18:07:48.942Z,85.80
2022-09-07T18:10:18.356Z,85.90
2022-09-07T18:12:48.094Z,85.80
2022-09-07T18:15:17.489Z,85.80
2022-09-07T18:17:46.957Z,86.00
2022-09-07T18:20:16.174Z,86.20
2022-09-07T18:22:46.196Z,87.10
2022-09-07T18:25:15.990Z,86.30
2022-09-07T18:27:45.618Z,86.20
2022-09-07T18:30:15.172Z,86.10
2022-09-07T18:32:45.198Z,86.10
2022-09-07T18:35:14.280Z,86.20
2022-09-07T18:37:43.436Z,86.10
2022-09-07T18:40:12.856Z,86.10
2022-09-07T18:42:43.044Z,86.40
2022-09-07T18:45:28.277Z,86.50
2022-09-07T18:47:57.581Z,86.60
2022-09-07T18:50:27.100Z,86.80
2022-09-07T18:53:04.069Z,86.90
2022-09-07T18:55:43.492Z,87.30
2022-09-07T18:58:12.783Z,87.70
2022-09-07T19:00:45.865Z,87.00
2022-09-07T19:03:16.740Z,87.10
2022-09-07T19:05:50.619Z,87.40
2022-09-07T19:08:20.337Z,87.00
2022-09-07T19:10:50.018Z,87.00
2022-09-07T19:13:19.257Z,87.00
2022-09-07T19:15:48.660Z,87.00
2022-09-07T19:18:17.947Z,87.00
2022-09-07T19:20:47.248Z,86.90
2022-09-07T19:23:16.530Z,86.80
2022-09-07T19:25:45.868Z,86.80
2022-09-07T19:28:15.621Z,86.70
2022-09-07T19:30:44.891Z,86.60
2022-09-07T19:33:14.197Z,86.60
2022-09-07T19:35:43.557Z,86.70
2022-09-07T19:38:13.766Z,86.70
2022-09-07T19:40:42.988Z,86.70
2022-09-07T19:43:12.284Z,86.80
2022-09-07T19:45:41.650Z,86.70
2022-09-07T19:48:10.985Z,86.50
2022-09-07T19:50:40.281Z,86.80
2022-09-07T19:53:09.673Z,87.30
2022-09-07T19:55:38.960Z,87.10
2022-09-07T19:58:08.864Z,88.10
2022-09-07T20:00:42.825Z,88.60
2022-09-07T20:03:12.359Z,88.20
2022-09-07T20:05:44.732Z,88.80
2022-09-07T20:08:14.087Z,88.20
2022-09-07T20:10:43.423Z,87.70
2022-09-07T20:13:12.707Z,87.50
2022-09-07T20:15:43.615Z,87.50
2022-09-07T20:18:12.909Z,87.60
2022-09-07T20:20:42.166Z,87.80
2022-09-07T20:23:11.618Z,87.70
2022-09-07T20:25:40.927Z,87.60
2022-09-07T20:28:10.696Z,87.60
2022-09-07T20:30:45.035Z,87.70
2022-09-07T20:33:14.315Z,87.70
2022-09-07T20:35:44.831Z,87.60
2022-09-07T20:38:14.409Z,87.70
2022-09-07T20:40:56.159Z,87.70
2022-09-07T20:43:26.184Z,88.30
2022-09-07T20:45:59.500Z,88.20
2022-09-07T20:48:29.504Z,88.60
2022-09-07T20:51:00.677Z,88.60
2022-09-07T20:53:30.007Z,88.80
2022-09-07T20:56:04.529Z,88.40
2022-09-07T20:58:34.308Z,88.50
2022-09-07T21:01:04.012Z,88.70
2022-09-07T21:03:33.378Z,88.60
2022-09-07T21:06:07.780Z,88.50
2022-09-07T21:08:38.777Z,88.40
2022-09-07T21:11:14.071Z,88.60
2022-09-07T21:13:43.662Z,88.60
2022-09-07T21:16:17.869Z,88.50
2022-09-07T21:18:47.000Z,88.40
2022-09-07T21:21:20.445Z,88.80
2022-09-07T21:23:50.277Z,88.80
2022-09-07T21:26:22.811Z,88.90
2022-09-07T21:29:02.911Z,88.70
2022-09-07T21:31:33.702Z,88.80
2022-09-07T21:34:04.043Z,88.90
2022-09-07T21:36:33.099Z,88.90
2022-09-07T21:39:02.125Z,89.00
2022-09-07T21:41:31.603Z,89.20
2022-09-07T21:44:02.612Z,89.30
2022-09-07T21:46:33.727Z,89.40
2022-09-07T21:49:03.193Z,89.50
2022-09-07T21:51:33.118Z,89.50
2022-09-07T21:54:03.044Z,90.00
2022-09-07T21:56:33.355Z,89.70
2022-09-07T21:59:03.715Z,90.00
2022-09-07T22:01:33.512Z,90.30
2022-09-07T22:04:04.916Z,90.30
2022-09-07T22:06:35.327Z,90.10
2022-09-07T22:09:06.367Z,89.90
2022-09-07T22:11:35.890Z,90.00
2022-09-07T22:14:06.871Z,90.00
2022-09-07T22:16:36.882Z,89.90
2022-09-07T22:19:10.331Z,90.00
2022-09-07T22:21:39.980Z,89.90
2022-09-07T22:24:09.458Z,90.00
2022-09-07T22:26:40.252Z,90.00
2022-09-07T22:29:12.240Z,89.80
2022-09-07T22:31:42.990Z,89.70
2022-09-07T22:34:12.767Z,90.00
2022-09-07T22:36:44.537Z,89.80
2022-09-07T22:39:20.829Z,89.80
2022-09-07T22:41:50.148Z,89.90
2022-09-07T22:44:20.375Z,89.90
2022-09-07T22:46:49.941Z,90.00
2022-09-07T22:49:19.936Z,89.90
2022-09-07T22:51:49.262Z,89.90
2022-09-07T22:54:18.357Z,90.00
2022-09-07T22:56:47.413Z,90.00
2022-09-07T22:59:16.708Z,90.10
2022-09-07T23:01:47.017Z,90.00
2022-09-07T23:04:16.389Z,90.00
2022-09-07T23:06:45.640Z,90.00
2022-09-07T23:09:18.378Z,90.00
2022-09-07T23:11:49.134Z,89.80
2022-09-07T23:14:23.509Z,89.80
2022-09-07T23:16:52.841Z,89.80
2022-09-07T23:19:22.669Z,89.90
2022-09-07T23:21:51.711Z,89.80
2022-09-07T23:24:20.905Z,89.80
2022-09-07T23:26:50.306Z,90.10
2022-09-07T23:29:21.819Z,90.00
2022-09-07T23:31:50.983Z,90.20
2022-09-07T23:34:20.079Z,90.30
2022-09-07T23:36:49.081Z,90.10
2022-09-07T23:39:18.217Z,90.10
2022-09-07T23:41:47.223Z,90.00
2022-09-07T23:44:16.336Z,89.90
2022-09-07T23:46:45.433Z,89.90
2022-09-07T23:49:14.539Z,90.00
2022-09-07T23:51:43.590Z,90.40
2022-09-07T23:54:13.024Z,90.70
2022-09-07T23:56:42.148Z,91.10
2022-09-07T23:59:11.475Z,90.40
